JRH weather

Jorhat Airport
Jorhat, Assam, India

Public forecast

Using degrees Celsius for public forecast. Weather courtesy of forecast.io.

Closest aviation weather report (METAR) to Jorhat Airport

Closest report is Dibrugarh Airport, 63.7 nm (118.0 km) NE. Retrieved 2020/02/22 04:00 UTC (16 minutes ago):

VEMN 220400Z 02005KT 5000 HZ FEW100 23/14 Q1022 NOSIG

Aviation forecast (TAF) for Jorhat Airport

Forecast is more than 12 hours old.

Retrieved 2020/02/21 12:30 UTC (16 hours ago):

TAF VEJT 210930Z 2112/2124 02005KT 6000 SCT250 BECMG 2113/2114 VRB02KT 5000 BR FEW100 SCT250 BECMG 2115/2116 3000 BR BECMG 2122/2123 1500 BR SCT090 SCT250